Terminal Aerodrome Forecast
Issued by NWS Melbourne, FL

Home | Current Version | Previous Version | Text Only | Print | Product List | Glossary On
Versions: 1 2 3 4 5 6 7 8 9 10 11 12 13 14 15 16 17 18 19 20
000
FTUS42 KMLB 171100
TAFMLB
TAF
KMLB 171125Z 1712/1812 23004KT P6SM VCSH SCT025 SCT040 BKN060
      TEMPO 1712/1713 -SHRA
     FM171400 27008KT P6SM VCSH SCT025 SCT120 BKN250
     FM171900 29012KT P6SM VCTS SCT030CB BKN060
     FM180000 30004KT P6SM VCSH BKN040 OVC080=

USA.gov is the U.S. government's official web portal to all federal, state and local government web resources and services.